Time;durP1;ratioP1;P1;durP2;ratioP2;P2;SDS_P1;SDS_P2;PMS_P1;PMS_P2;Temp;Humidity;BMP_temperature;BMP_pressure;BME280_temperature;BME280_humidity;BME280_pressure;Samples;Min_cycle;Max_cycle;Signal;HPM_P1;HPM_P2
2021/09/12 00:03:17;;;;;;;17.13;15.48;;;;;;;19.73;77.43;101460.16;6238206;28;20232;-54
2021/09/12 00:06:39;;;;;;;21.08;19.17;;;;;;;19.30;78.96;101461.69;6250528;28;20236;-54
2021/09/12 00:10:00;;;;;;;19.88;17.98;;;;;;;19.41;79.42;101463.97;6247903;28;20233;-54
2021/09/12 00:13:21;;;;;;;19.25;17.55;;;;;;;19.68;77.46;101456.81;6247305;28;20227;-50
2021/09/12 00:16:44;;;;;;;19.77;17.88;;;;;;;19.61;77.56;101465.88;6249359;28;20689;-49
2021/09/12 00:20:07;;;;;;;19.42;17.42;;;;;;;19.48;77.84;101452.22;6248790;28;20224;-52
2021/09/12 00:23:28;;;;;;;20.38;18.38;;;;;;;19.33;78.43;101451.03;6250230;28;20561;-54
2021/09/12 00:26:49;;;;;;;19.65;17.73;;;;;;;19.39;78.35;101456.09;6252597;28;20607;-54
2021/09/12 00:30:12;;;;;;;21.17;18.92;;;;;;;19.26;78.60;101453.00;6235195;28;20240;-51
2021/09/12 00:33:34;;;;;;;21.42;19.40;;;;;;;19.30;78.69;101451.13;6240739;28;20235;-51
2021/09/12 00:36:55;;;;;;;19.27;17.38;;;;;;;19.30;78.76;101440.56;6251447;28;20664;-51
2021/09/12 00:40:18;;;;;;;21.58;19.42;;;;;;;19.47;77.61;101432.03;6247880;28;20243;-49
2021/09/12 00:43:39;;;;;;;20.70;18.52;;;;;;;19.47;77.52;101445.25;6237806;28;20228;-52
2021/09/12 00:47:09;;;;;;;22.27;20.17;;;;;;;19.11;79.24;101436.84;6248690;28;20228;-54
2021/09/12 00:50:31;;;;;;;20.08;17.73;;;;;;;19.27;78.91;101430.13;6255560;28;20247;-49
2021/09/12 00:53:54;;;;;;;20.67;18.73;;;;;;;19.12;79.59;101428.88;6243799;28;20229;-53
2021/09/12 00:57:15;;;;;;;20.90;19.00;;;;;;;19.57;77.29;101441.34;6251089;28;20239;-51
2021/09/12 01:00:36;;;;;;;21.92;19.95;;;;;;;19.47;77.39;101440.81;6242270;28;20227;-50
2021/09/12 01:03:57;;;;;;;22.50;20.27;;;;;;;19.33;77.94;101445.75;6244655;28;20319;-53
2021/09/12 01:07:19;;;;;;;20.85;18.92;;;;;;;19.23;78.80;101445.22;6243716;28;20251;-49
2021/09/12 01:10:41;;;;;;;23.55;20.92;;;;;;;19.31;78.15;101447.59;6246143;28;20228;-50
2021/09/12 01:14:02;;;;;;;22.58;20.50;;;;;;;19.25;78.55;101456.56;6243943;28;20521;-50
2021/09/12 01:17:26;;;;;;;22.65;20.60;;;;;;;19.31;78.25;101458.16;6236729;28;20228;-49
2021/09/12 01:20:47;;;;;;;21.80;19.88;;;;;;;19.18;78.71;101439.22;6248670;28;20558;-50
2021/09/12 01:24:10;;;;;;;21.05;18.88;;;;;;;19.27;78.47;101441.53;6249851;28;20235;-49
2021/09/12 01:27:31;;;;;;;23.13;21.02;;;;;;;19.26;78.16;101434.53;6249149;28;20508;-54
2021/09/12 01:30:52;;;;;;;24.30;22.02;;;;;;;19.29;78.16;101433.56;6241093;28;20456;-49
2021/09/12 01:34:13;;;;;;;25.83;23.27;;;;;;;18.91;79.54;101432.25;6225268;28;20236;-51
2021/09/12 01:37:34;;;;;;;24.52;22.15;;;;;;;19.18;79.05;101443.66;6247253;28;20235;-53
2021/09/12 01:40:56;;;;;;;24.73;22.40;;;;;;;19.03;79.41;101437.97;6242655;28;20231;-49
2021/09/12 01:44:23;;;;;;;25.55;23.15;;;;;;;19.20;78.71;101441.81;6249596;28;20233;-53
2021/09/12 01:47:46;;;;;;;25.13;22.65;;;;;;;19.53;77.03;101430.94;6240137;28;20228;-48
2021/09/12 01:51:07;;;;;;;23.63;21.40;;;;;;;19.31;78.24;101431.75;6247061;28;22423;-49
2021/09/12 01:54:28;;;;;;;24.67;22.33;;;;;;;19.28;78.36;101431.84;6243616;28;20240;-50
2021/09/12 01:57:51;;;;;;;24.33;21.90;;;;;;;19.32;78.04;101425.53;6237524;28;20236;-49
2021/09/12 02:01:12;;;;;;;26.75;24.23;;;;;;;19.28;78.39;101430.03;6248531;28;20227;-53
2021/09/12 02:04:33;;;;;;;26.38;23.73;;;;;;;19.19;78.91;101427.75;6244529;28;20228;-52
2021/09/12 02:07:53;;;;;;;25.05;22.77;;;;;;;19.22;78.64;101432.06;6245235;28;20307;-48
2021/09/12 02:11:15;;;;;;;23.70;21.50;;;;;;;19.49;77.65;101435.47;6243181;28;20228;-52
2021/09/12 02:14:37;;;;;;;28.33;25.58;;;;;;;19.18;78.82;101430.44;6241802;28;20232;-53
2021/09/12 02:17:58;;;;;;;27.73;25.05;;;;;;;19.00;79.60;101438.09;6241949;28;20228;-51
2021/09/12 02:21:19;;;;;;;24.42;21.95;;;;;;;19.17;79.26;101439.28;6246134;28;20224;-51
2021/09/12 02:24:40;;;;;;;26.98;24.13;;;;;;;18.95;79.88;101440.00;6243861;28;20220;-50
2021/09/12 02:28:01;;;;;;;27.63;24.80;;;;;;;18.89;80.34;101446.34;6246551;28;20244;-51
2021/09/12 02:31:24;;;;;;;27.10;24.42;;;;;;;18.85;80.29;101443.88;6249377;28;20228;-48
2021/09/12 02:34:45;;;;;;;26.08;23.35;;;;;;;18.80;81.31;101445.81;6242429;28;20240;-51
2021/09/12 02:38:06;;;;;;;29.35;26.75;;;;;;;18.54;82.18;101442.22;6239750;28;20618;-50
2021/09/12 02:41:27;;;;;;;26.48;23.83;;;;;;;18.98;80.22;101439.03;6235548;28;20357;-50
2021/09/12 02:44:48;;;;;;;26.35;23.95;;;;;;;19.03;80.03;101445.88;6245340;28;20319;-51
2021/09/12 02:48:10;;;;;;;29.40;26.60;;;;;;;18.84;80.61;101443.03;6231309;28;20232;-54
2021/09/12 02:51:31;;;;;;;25.98;23.40;;;;;;;19.11;79.60;101450.03;6242148;28;20220;-48
2021/09/12 02:54:52;;;;;;;27.75;25.00;;;;;;;19.14;79.36;101447.31;6240792;28;20263;-48
2021/09/12 02:58:13;;;;;;;29.80;26.67;;;;;;;18.69;81.16;101454.91;6243557;28;20229;-50
2021/09/12 03:01:34;;;;;;;28.83;26.23;;;;;;;19.08;79.63;101462.44;6248270;28;20675;-49
2021/09/12 03:04:56;;;;;;;28.60;25.75;;;;;;;18.94;80.00;101458.53;6231665;28;20329;-51
2021/09/12 03:08:17;;;;;;;28.25;25.52;;;;;;;19.12;79.18;101463.19;6241757;28;20571;-52
2021/09/12 03:11:38;;;;;;;31.55;28.45;;;;;;;18.85;80.05;101457.94;6247423;28;20262;-50
2021/09/12 03:14:59;;;;;;;31.60;28.65;;;;;;;19.08;79.07;101451.88;6246793;28;20223;-49
2021/09/12 03:18:21;;;;;;;32.90;27.10;;;;;;;18.96;79.46;101460.22;6249240;28;20327;-50
2021/09/12 03:21:43;;;;;;;30.92;27.95;;;;;;;18.89;79.79;101458.69;6242235;28;20508;-47
2021/09/12 03:25:06;;;;;;;30.92;27.77;;;;;;;18.89;79.71;101459.56;6241149;28;20535;-49
2021/09/12 03:28:27;;;;;;;28.08;25.52;;;;;;;18.86;79.94;101453.50;6241773;28;20253;-53
2021/09/12 03:31:48;;;;;;;27.25;24.50;;;;;;;19.13;78.44;101448.22;6246499;28;20358;-49
2021/09/12 03:35:09;;;;;;;28.15;25.35;;;;;;;18.77;79.44;101451.16;6243869;28;20305;-50
2021/09/12 03:38:31;;;;;;;27.77;25.20;;;;;;;18.77;79.98;101453.81;6243670;28;20239;-51
2021/09/12 03:41:52;;;;;;;27.10;24.33;;;;;;;18.82;79.54;101443.97;6239407;28;20237;-52
2021/09/12 03:45:13;;;;;;;27.70;25.10;;;;;;;18.82;79.50;101450.09;6246245;28;20248;-50
2021/09/12 03:48:34;;;;;;;29.63;26.67;;;;;;;18.91;79.16;101451.59;6242740;28;20232;-50
2021/09/12 03:51:55;;;;;;;27.92;25.40;;;;;;;18.66;79.80;101451.50;6251527;28;20318;-48
2021/09/12 03:55:17;;;;;;;31.80;28.30;;;;;;;18.38;80.64;101448.88;6248657;28;20244;-52
2021/09/12 03:58:38;;;;;;;30.30;27.60;;;;;;;18.20;81.46;101448.53;6246762;28;20276;-48
2021/09/12 04:01:59;;;;;;;29.83;26.90;;;;;;;18.27;80.72;101451.88;6249870;28;20512;-50
2021/09/12 04:05:20;;;;;;;28.85;26.15;;;;;;;18.22;81.00;101454.66;6244812;28;20224;-54
2021/09/12 04:08:41;;;;;;;28.73;26.05;;;;;;;18.06;82.66;101456.03;6253568;28;20236;-49
2021/09/12 04:12:04;;;;;;;28.42;25.85;;;;;;;18.38;81.05;101457.69;6247956;28;20216;-49
2021/09/12 04:15:25;;;;;;;28.85;26.10;;;;;;;18.26;81.26;101455.41;6245654;28;20220;-49
2021/09/12 04:18:46;;;;;;;29.17;26.50;;;;;;;18.37;80.60;101457.72;6247662;28;20260;-54
2021/09/12 04:22:07;;;;;;;32.58;27.77;;;;;;;18.13;81.41;101452.31;6242019;28;20227;-47
2021/09/12 04:25:28;;;;;;;27.15;24.65;;;;;;;18.58;78.96;101457.03;6249210;28;20236;-50
2021/09/12 04:28:51;;;;;;;28.02;25.25;;;;;;;18.23;79.96;101452.88;6242965;28;20232;-49
2021/09/12 04:32:11;;;;;;;30.27;27.42;;;;;;;17.96;81.67;101452.81;6233221;28;20227;-50
2021/09/12 04:35:32;;;;;;;28.42;25.88;;;;;;;18.11;81.08;101456.75;6238953;28;20228;-48
2021/09/12 04:38:53;;;;;;;30.88;27.73;;;;;;;18.13;81.09;101451.44;6248305;28;20627;-52
2021/09/12 04:42:14;;;;;;;29.40;26.70;;;;;;;18.07;80.43;101455.13;6230986;28;20331;-52
2021/09/12 04:45:36;;;;;;;29.83;26.90;;;;;;;17.99;81.36;101460.63;6255972;28;20224;-49
2021/09/12 04:48:58;;;;;;;28.17;25.50;;;;;;;18.11;80.64;101464.66;6225080;28;20228;-50
2021/09/12 04:52:19;;;;;;;31.80;28.85;;;;;;;18.15;80.39;101466.31;6242040;28;20228;-52
2021/09/12 04:55:39;;;;;;;29.73;26.88;;;;;;;18.33;79.52;101471.91;6240774;28;20720;-52
2021/09/12 04:59:00;;;;;;;29.58;26.52;;;;;;;18.27;79.83;101467.69;6250609;28;20236;-52
2021/09/12 05:02:23;;;;;;;30.05;27.02;;;;;;;17.80;82.20;101456.78;6242649;28;20232;-54
2021/09/12 05:05:43;;;;;;;31.90;28.60;;;;;;;18.25;80.12;101465.09;6242139;28;20239;-49
2021/09/12 05:09:04;;;;;;;31.90;28.77;;;;;;;18.58;78.57;101466.72;6247410;28;20330;-49
2021/09/12 05:12:27;;;;;;;29.48;26.77;;;;;;;18.55;78.59;101465.03;6246672;28;20229;-54
2021/09/12 05:15:49;;;;;;;32.47;29.17;;;;;;;18.14;80.74;101472.47;6250902;28;20239;-50
2021/09/12 05:19:13;;;;;;;32.28;29.17;;;;;;;18.38;80.36;101467.34;6230991;28;20779;-49
2021/09/12 05:22:34;;;;;;;31.25;28.20;;;;;;;18.70;78.71;101471.59;6254923;28;20235;-52
2021/09/12 05:25:56;;;;;;;31.45;28.35;;;;;;;18.88;77.34;101475.44;6247984;28;20240;-52
2021/09/12 05:29:18;;;;;;;31.92;28.58;;;;;;;18.37;80.48;101476.19;6254510;28;20224;-49
2021/09/12 05:32:43;;;;;;;34.65;31.35;;;;;;;18.30;81.06;101479.00;6234145;28;20483;-49
2021/09/12 05:36:06;;;;;;;31.08;27.88;;;;;;;18.73;78.92;101473.25;6239042;28;20255;-50
2021/09/12 05:39:27;;;;;;;30.33;27.27;;;;;;;18.43;80.04;101473.34;6244300;28;20264;-51
2021/09/12 05:42:48;;;;;;;33.45;30.02;;;;;;;18.74;78.36;101477.66;6243343;28;20231;-48
2021/09/12 05:46:09;;;;;;;34.50;31.02;;;;;;;18.41;80.38;101478.66;6248245;28;20567;-52
2021/09/12 05:49:30;;;;;;;33.42;28.70;;;;;;;18.74;78.84;101482.91;6237742;28;20351;-49
2021/09/12 05:52:54;;;;;;;31.05;28.10;;;;;;;18.59;79.68;101484.25;6255097;28;20783;-53
2021/09/12 05:56:15;;;;;;;31.65;28.58;;;;;;;18.65;79.28;101487.59;6249119;28;20232;-54
2021/09/12 05:59:36;;;;;;;31.63;28.60;;;;;;;18.53;79.54;101490.59;6246465;28;20233;-51
2021/09/12 06:02:57;;;;;;;32.15;28.65;;;;;;;18.58;79.07;101496.59;6229815;28;20780;-53
2021/09/12 06:06:18;;;;;;;35.35;31.67;;;;;;;18.78;79.00;101492.47;6248239;28;20739;-51
2021/09/12 06:09:40;;;;;;;32.47;29.17;;;;;;;18.53;79.71;101495.88;6248682;28;20244;-52
2021/09/12 06:13:01;;;;;;;32.25;29.17;;;;;;;18.60;79.22;101496.56;6223713;28;20419;-48
2021/09/12 06:16:22;;;;;;;31.27;28.10;;;;;;;18.47;80.33;101496.06;6232931;28;20228;-51
2021/09/12 06:19:43;;;;;;;32.75;29.67;;;;;;;18.48;80.05;101500.44;6224648;28;22374;-50
2021/09/12 06:23:04;;;;;;;28.73;26.08;;;;;;;19.01;77.94;101492.59;6239351;28;20236;-48
2021/09/12 06:26:26;;;;;;;30.98;27.88;;;;;;;19.16;77.01;101498.28;6252829;28;20327;-51
2021/09/12 06:29:48;;;;;;;28.58;25.98;;;;;;;19.00;77.10;101490.88;6245244;28;20288;-52
2021/09/12 06:33:09;;;;;;;29.35;26.30;;;;;;;18.66;79.07;101497.22;6238312;28;20248;-51
2021/09/12 06:36:30;;;;;;;29.42;26.65;;;;;;;18.84;77.82;101494.91;6258215;28;20592;-47
2021/09/12 06:39:51;;;;;;;29.63;26.88;;;;;;;18.81;77.66;101502.97;6244891;28;20239;-50
2021/09/12 06:43:13;;;;;;;28.90;26.05;;;;;;;18.82;77.95;101497.59;6231307;28;20628;-52
2021/09/12 06:46:34;;;;;;;28.55;25.95;;;;;;;18.89;77.85;101496.50;6245756;28;20216;-46
2021/09/12 06:49:57;;;;;;;28.65;25.73;;;;;;;18.68;78.48;101500.66;6225710;28;20229;-49
2021/09/12 06:53:19;;;;;;;29.80;26.73;;;;;;;18.82;77.85;101497.59;6247620;28;20256;-48
2021/09/12 06:56:40;;;;;;;26.27;23.88;;;;;;;18.68;78.63;101503.31;6249535;28;20350;-50
2021/09/12 07:00:04;;;;;;;29.30;26.50;;;;;;;18.81;77.87;101497.69;6250491;28;20236;-53
2021/09/12 07:03:25;;;;;;;28.60;25.90;;;;;;;18.75;78.61;101497.84;6223980;28;20487;-50
2021/09/12 07:06:47;;;;;;;29.08;26.27;;;;;;;18.90;77.56;101492.06;6245439;28;20609;-48
2021/09/12 07:10:09;;;;;;;30.45;27.25;;;;;;;19.06;77.42;101497.72;6242224;28;20263;-49
2021/09/12 07:13:30;;;;;;;29.80;26.77;;;;;;;19.13;76.56;101498.38;6244481;28;20467;-48
2021/09/12 07:16:52;;;;;;;27.98;25.27;;;;;;;18.79;78.36;101502.13;6244390;28;20310;-49
2021/09/12 07:20:14;;;;;;;29.10;26.33;;;;;;;18.61;78.95;101499.16;6224402;28;20366;-48
2021/09/12 07:23:35;;;;;;;30.58;27.38;;;;;;;18.61;79.30;101496.50;6253826;28;20605;-51
2021/09/12 07:26:56;;;;;;;28.50;25.58;;;;;;;18.77;78.55;101503.94;6255012;28;20227;-52
2021/09/12 07:30:17;;;;;;;28.77;25.90;;;;;;;18.65;78.64;101505.16;6256341;28;20512;-53
2021/09/12 07:33:40;;;;;;;27.50;24.92;;;;;;;19.30;76.02;101501.28;6246018;28;20286;-54
2021/09/12 07:37:01;;;;;;;24.52;22.30;;;;;;;19.67;73.77;101502.63;6252741;28;20219;-53
2021/09/12 07:40:22;;;;;;;24.10;21.67;;;;;;;19.48;74.24;101500.66;6252055;28;20323;-53
2021/09/12 07:43:44;;;;;;;23.58;21.48;;;;;;;19.43;73.61;101493.81;6251931;28;20219;-51
2021/09/12 07:47:05;;;;;;;22.98;20.80;;;;;;;19.13;75.27;101506.28;6255781;28;20224;-52
2021/09/12 07:50:27;;;;;;;21.05;19.05;;;;;;;19.80;72.68;101500.44;6254483;28;20227;-51
2021/09/12 07:53:48;;;;;;;21.60;19.48;;;;;;;19.62;73.20;101501.97;6252440;28;20228;-52
2021/09/12 07:57:09;;;;;;;23.35;21.13;;;;;;;19.73;72.58;101494.50;6254487;28;20247;-50
2021/09/12 08:00:30;;;;;;;22.15;20.02;;;;;;;19.73;72.96;101501.59;6253814;28;20584;-52
2021/09/12 08:03:51;;;;;;;21.42;19.33;;;;;;;19.78;72.93;101503.13;6236504;28;20224;-49
2021/09/12 08:07:14;;;;;;;20.50;18.45;;;;;;;19.79;72.21;101507.53;6246307;28;20232;-48
2021/09/12 08:10:35;;;;;;;20.67;18.67;;;;;;;19.73;72.67;101510.38;6249424;28;20239;-55
2021/09/12 08:13:56;;;;;;;23.17;20.83;;;;;;;19.86;72.31;101519.56;6252492;28;20240;-52
2021/09/12 08:17:17;;;;;;;23.17;20.95;;;;;;;19.84;72.55;101516.13;6253896;28;20232;-53
2021/09/12 08:20:38;;;;;;;23.85;21.23;;;;;;;19.82;72.81;101523.25;6250030;28;20608;-54
2021/09/12 08:24:00;;;;;;;27.10;22.80;;;;;;;19.50;73.82;101523.50;6247366;28;20224;-50
2021/09/12 08:27:21;;;;;;;26.77;23.88;;;;;;;19.47;74.38;101527.97;6241958;28;20383;-56
2021/09/12 08:30:42;;;;;;;22.90;20.63;;;;;;;20.06;72.60;101528.53;6244291;28;20240;-50
2021/09/12 08:34:03;;;;;;;24.77;22.35;;;;;;;20.11;71.65;101523.94;6226705;28;20375;-55
2021/09/12 08:37:24;;;;;;;24.08;21.67;;;;;;;20.03;72.42;101526.03;6254290;28;20632;-49
2021/09/12 08:40:46;;;;;;;20.95;18.75;;;;;;;20.52;70.72;101531.22;6253786;28;20236;-48
2021/09/12 08:44:09;;;;;;;26.35;23.05;;;;;;;20.73;69.85;101532.19;6249843;28;20291;-50
2021/09/12 08:47:31;;;;;;;24.13;21.75;;;;;;;20.38;70.32;101532.63;6238512;28;20241;-51
2021/09/12 08:50:52;;;;;;;22.13;20.02;;;;;;;20.12;70.77;101528.31;6251284;28;20255;-51
2021/09/12 08:54:13;;;;;;;22.10;19.75;;;;;;;20.35;70.77;101526.56;6245570;28;20228;-50
2021/09/12 08:57:35;;;;;;;20.25;18.25;;;;;;;20.19;70.45;101521.03;6244302;28;20243;-49
2021/09/12 09:00:58;;;;;;;21.95;19.63;;;;;;;20.45;70.81;101517.34;6243188;28;20476;-51
2021/09/12 09:04:19;;;;;;;83.72;70.82;;;;;;;21.26;70.44;101515.84;6246705;28;20299;-51
2021/09/12 09:07:40;;;;;;;142.65;132.75;;;;;;;20.95;72.00;101517.13;6243725;28;20315;-51
2021/09/12 09:11:03;;;;;;;429.58;265.25;;;;;;;21.76;68.62;101520.75;6248686;28;20228;-48
2021/09/12 09:14:26;;;;;;;1299.68;999.90;;;;;;;22.29;68.30;101529.00;6243964;28;20228;-47
2021/09/12 09:17:48;;;;;;;568.83;512.28;;;;;;;21.93;67.19;101525.28;6244812;28;20240;-50
2021/09/12 09:21:26;;;;;;;84.15;76.78;;;;;;;21.64;67.04;101523.94;6251337;28;20228;-52
2021/09/12 09:24:47;;;;;;;25.30;22.92;;;;;;;21.00;70.26;101539.00;6252695;28;20224;-51
2021/09/12 09:28:09;;;;;;;24.95;22.33;;;;;;;21.49;68.82;101540.53;6253135;28;20308;-51
2021/09/12 09:31:32;;;;;;;22.65;20.33;;;;;;;21.07;70.72;101536.09;6238566;28;20235;-48
2021/09/12 09:34:59;;;;;;;25.30;22.67;;;;;;;20.85;72.30;101547.56;6248635;28;20237;-53
2021/09/12 09:38:20;;;;;;;24.13;20.50;;;;;;;21.43;69.26;101550.44;6240360;28;20316;-49
2021/09/12 09:41:42;;;;;;;24.77;20.40;;;;;;;21.35;69.19;101552.53;6248563;28;20233;-54
2021/09/12 09:45:06;;;;;;;21.38;19.27;;;;;;;20.26;71.86;101544.53;6243494;28;20251;-50
2021/09/12 09:48:34;;;;;;;22.77;20.40;;;;;;;20.71;70.26;101545.47;6239256;28;20228;-50
2021/09/12 09:51:57;;;;;;;23.75;19.42;;;;;;;20.28;73.36;101555.06;6253013;28;20243;-47
2021/09/12 09:55:20;;;;;;;21.13;18.05;;;;;;;19.84;73.12;101558.41;6246145;28;20252;-51
2021/09/12 09:58:43;;;;;;;21.88;19.52;;;;;;;19.88;72.96;101553.88;6255525;28;20232;-50
2021/09/12 10:02:05;;;;;;;22.83;17.75;;;;;;;19.63;74.06;101561.78;6249882;28;20268;-47
2021/09/12 10:05:29;;;;;;;19.58;16.88;;;;;;;20.02;72.41;101556.00;6245209;28;20231;-51
2021/09/12 10:08:50;;;;;;;18.55;16.58;;;;;;;19.89;71.90;101552.09;6249311;28;20236;-48
2021/09/12 10:12:13;;;;;;;18.80;16.98;;;;;;;20.73;69.21;101550.72;6251257;28;20595;-52
2021/09/12 10:15:38;;;;;;;17.80;16.10;;;;;;;21.07;68.44;101551.97;6254403;28;20307;-50
2021/09/12 10:18:59;;;;;;;17.08;15.57;;;;;;;20.61;68.93;101560.84;6248361;28;20232;-48
2021/09/12 10:22:21;;;;;;;16.52;14.90;;;;;;;21.10;67.75;101551.84;6250396;28;20232;-51
2021/09/12 10:25:56;;;;;;;19.45;14.55;;;;;;;21.21;66.90;101549.63;6255398;28;20235;-53
2021/09/12 10:29:44;;;;;;;16.00;13.98;;;;;;;21.08;67.63;101559.00;6249692;28;20232;-49
2021/09/12 10:33:27;;;;;;;20.00;16.40;;;;;;;20.69;68.75;101562.34;6253276;28;20348;-51
2021/09/12 10:36:48;;;;;;;15.48;13.95;;;;;;;20.74;67.54;101552.41;6245592;28;20232;-49
2021/09/12 10:40:11;;;;;;;17.23;15.40;;;;;;;21.01;67.17;101548.66;6226741;28;20613;-50
2021/09/12 10:43:41;;;;;;;18.65;14.55;;;;;;;21.90;64.27;101548.44;6257342;28;20236;-51
2021/09/12 10:47:06;;;;;;;13.98;12.57;;;;;;;22.42;62.46;101536.28;6260257;28;20231;-49
2021/09/12 10:50:44;;;;;;;15.40;13.45;;;;;;;23.08;59.70;101536.72;6253515;28;20232;-51
2021/09/12 10:54:06;;;;;;;14.30;13.00;;;;;;;23.88;56.73;101535.25;6253559;28;20311;-49
2021/09/12 10:57:28;;;;;;;13.90;11.15;;;;;;;23.63;56.49;101536.50;6252520;28;20315;-53
2021/09/12 11:00:49;;;;;;;13.27;11.43;;;;;;;22.44;58.90;101527.41;6248233;28;20631;-48
2021/09/12 11:04:11;;;;;;;11.43;10.23;;;;;;;21.77;61.71;101529.56;6242103;28;20692;-52
2021/09/12 11:07:54;;;;;;;12.90;11.57;;;;;;;20.91;64.86;101542.00;6248575;28;20228;-54
2021/09/12 11:11:15;;;;;;;13.55;11.48;;;;;;;21.60;63.50;101530.31;6239555;28;20243;-52
2021/09/12 11:14:39;;;;;;;13.52;12.32;;;;;;;21.58;63.47;101537.47;6251768;28;20232;-51
2021/09/12 11:18:00;;;;;;;15.68;13.00;;;;;;;21.85;63.18;101534.50;6241190;28;20291;-51
2021/09/12 11:21:31;;;;;;;13.82;12.50;;;;;;;21.76;63.55;101531.34;6242255;28;20240;-52
2021/09/12 11:25:01;;;;;;;12.73;11.55;;;;;;;21.82;65.31;101524.91;6240959;28;20609;-50
2021/09/12 11:28:26;;;;;;;13.25;11.23;;;;;;;23.13;60.63;101538.19;6249321;28;20307;-53
2021/09/12 11:36:48;;;;;;;14.63;11.60;;;;;;;24.31;57.83;101528.47;6240554;28;20223;-50
2021/09/12 11:40:10;;;;;;;11.63;10.52;;;;;;;26.03;52.43;101516.63;6227346;28;20250;-50
2021/09/12 11:43:31;;;;;;;12.77;10.93;;;;;;;25.81;51.17;101511.75;6251517;28;20235;-48
2021/09/12 11:46:52;;;;;;;10.35;9.35;;;;;;;24.08;56.04;101524.41;6243903;28;20227;-48
2021/09/12 11:50:14;;;;;;;12.25;10.52;;;;;;;24.37;56.02;101511.28;6238139;28;20219;-50
2021/09/12 11:53:37;;;;;;;8.38;7.68;;;;;;;23.62;54.83;101513.53;6245680;28;20512;-49
2021/09/12 11:57:00;;;;;;;9.88;8.88;;;;;;;22.95;57.00;101510.75;6225054;28;20326;-53
2021/09/12 12:00:22;;;;;;;7.25;6.65;;;;;;;23.38;55.86;101513.91;6242860;28;20240;-48
2021/09/12 12:03:43;;;;;;;9.18;6.57;;;;;;;23.00;57.19;101511.34;6240570;28;20235;-49
2021/09/12 12:07:04;;;;;;;11.73;7.65;;;;;;;22.45;57.18;101515.84;6224253;28;20236;-51
2021/09/12 12:10:34;;;;;;;18.15;7.43;;;;;;;22.27;58.43;101510.47;6243978;28;20255;-51
2021/09/12 12:13:55;;;;;;;8.80;7.85;;;;;;;23.14;55.47;101515.16;6239721;28;20700;-51
2021/09/12 12:17:19;;;;;;;9.13;7.72;;;;;;;23.69;53.32;101509.63;6248003;28;20611;-53
2021/09/12 12:20:40;;;;;;;7.97;6.13;;;;;;;23.76;54.05;101510.13;6243605;28;20227;-50
2021/09/12 12:24:09;;;;;;;8.45;7.75;;;;;;;24.89;50.48;101502.13;6249366;28;20231;-54
2021/09/12 12:27:39;;;;;;;8.75;7.18;;;;;;;26.57;46.10;101503.31;6255965;28;20568;-49
2021/09/12 12:31:11;;;;;;;7.60;6.45;;;;;;;26.48;46.32;101499.47;6243696;28;20231;-51
2021/09/12 12:34:37;;;;;;;9.77;6.97;;;;;;;25.34;48.48;101498.56;6246801;28;20243;-51
2021/09/12 12:37:58;;;;;;;8.32;6.45;;;;;;;24.98;50.31;101506.91;6252043;28;20228;-49
2021/09/12 12:41:23;;;;;;;9.88;6.95;;;;;;;24.33;51.55;101505.28;6251091;28;20243;-50
2021/09/12 12:44:47;;;;;;;7.55;6.55;;;;;;;23.76;54.17;101499.50;6247763;28;20509;-49
2021/09/12 12:48:21;;;;;;;6.95;6.40;;;;;;;23.18;55.33;101496.31;6247099;28;20216;-50
2021/09/12 12:51:42;;;;;;;7.43;6.60;;;;;;;22.73;55.72;101497.66;6241178;28;20636;-54
2021/09/12 12:55:05;;;;;;;7.88;6.20;;;;;;;23.00;56.31;101498.06;6243379;28;20286;-52
2021/09/12 12:58:26;;;;;;;7.10;6.47;;;;;;;22.61;56.41;101491.16;6247038;28;20232;-46
2021/09/12 13:01:49;;;;;;;12.05;8.50;;;;;;;22.05;56.88;101491.19;6248979;28;20232;-50
2021/09/12 13:05:10;;;;;;;6.55;5.95;;;;;;;23.22;55.12;101490.84;6246113;28;20306;-48
2021/09/12 13:08:31;;;;;;;6.95;6.25;;;;;;;23.78;52.83;101487.00;6253040;28;20224;-46
2021/09/12 13:11:53;;;;;;;6.70;6.00;;;;;;;23.38;53.64;101487.31;6253752;28;20568;-48
2021/09/12 13:15:13;;;;;;;6.57;5.97;;;;;;;23.57;53.02;101491.66;6237093;28;20252;-48
2021/09/12 13:18:36;;;;;;;5.03;4.60;;;;;;;23.88;52.66;101492.69;6258219;28;20228;-51
2021/09/12 13:21:57;;;;;;;6.28;5.47;;;;;;;23.59;53.25;101479.13;6254681;28;20228;-50
2021/09/12 13:25:18;;;;;;;6.88;5.63;;;;;;;24.07;51.92;101479.25;6252753;28;20220;-49
2021/09/12 13:28:39;;;;;;;6.53;5.90;;;;;;;23.92;52.56;101473.84;6248607;28;20235;-46
2021/09/12 13:32:01;;;;;;;7.03;6.43;;;;;;;24.14;52.27;101478.81;6242256;28;20221;-49
2021/09/12 13:35:23;;;;;;;5.78;5.28;;;;;;;24.20;52.31;101466.13;6249663;28;20224;-46
2021/09/12 13:38:45;;;;;;;7.35;5.55;;;;;;;23.98;52.70;101467.31;6255625;28;20235;-53
2021/09/12 13:42:05;;;;;;;6.90;6.18;;;;;;;24.65;50.53;101461.81;6250129;28;20327;-53
2021/09/12 13:45:26;;;;;;;9.88;6.70;;;;;;;24.00;50.92;101462.78;6252333;28;20256;-48
2021/09/12 13:48:47;;;;;;;5.78;5.10;;;;;;;22.62;54.70;101457.50;6242674;28;20236;-47
2021/09/12 13:52:10;;;;;;;7.03;5.63;;;;;;;23.65;52.91;101460.22;6250969;28;20606;-47
2021/09/12 13:55:33;;;;;;;6.45;5.85;;;;;;;23.50;53.49;101466.34;6251991;28;20224;-50
2021/09/12 13:58:53;;;;;;;11.57;6.40;;;;;;;22.99;54.39;101467.16;6251337;28;20239;-52
2021/09/12 14:02:14;;;;;;;5.88;5.38;;;;;;;22.92;54.81;101463.09;6243583;28;20241;-51
2021/09/12 14:05:35;;;;;;;7.22;6.07;;;;;;;23.06;54.67;101461.56;6241526;28;20235;-51
2021/09/12 14:08:58;;;;;;;6.55;5.28;;;;;;;22.94;55.19;101452.38;6236567;28;20548;-52
2021/09/12 14:12:19;;;;;;;7.82;5.53;;;;;;;22.73;55.84;101462.28;6251949;28;20229;-50
2021/09/12 14:15:40;;;;;;;7.03;6.43;;;;;;;22.79;56.52;101469.94;6247801;28;20223;-48
2021/09/12 14:19:01;;;;;;;7.57;6.88;;;;;;;22.53;57.65;101458.84;6251722;28;20635;-52
2021/09/12 14:22:22;;;;;;;7.50;6.63;;;;;;;22.21;60.11;101469.16;6255963;28;20541;-46
2021/09/12 14:25:44;;;;;;;7.55;6.22;;;;;;;22.42;59.45;101469.09;6243205;28;20232;-48
2021/09/12 14:29:05;;;;;;;5.22;4.72;;;;;;;22.16;58.37;101475.63;6245391;28;20232;-50
2021/09/12 14:32:26;;;;;;;3.45;3.15;;;;;;;21.82;58.28;101475.41;6249404;28;20232;-51
2021/09/12 14:35:47;;;;;;;6.25;3.75;;;;;;;21.74;57.39;101466.09;6249289;28;20224;-52
2021/09/12 14:39:08;;;;;;;3.13;2.15;;;;;;;21.72;54.59;101460.00;6245089;28;20224;-48
2021/09/12 14:42:30;;;;;;;3.25;2.00;;;;;;;21.83;54.94;101463.88;6251079;28;20240;-48
2021/09/12 14:45:51;;;;;;;1.90;1.30;;;;;;;21.67;55.00;101460.19;6248884;28;20259;-51
2021/09/12 14:49:11;;;;;;;2.20;2.00;;;;;;;21.67;54.13;101464.63;6251711;28;20227;-52
2021/09/12 14:52:32;;;;;;;1.77;1.65;;;;;;;21.59;53.73;101467.63;6238249;28;20236;-50
2021/09/12 14:55:54;;;;;;;2.55;1.90;;;;;;;21.13;54.59;101462.56;6254094;28;20236;-51
2021/09/12 14:59:21;;;;;;;1.75;1.65;;;;;;;21.34;55.03;101460.72;6241719;28;20236;-48
2021/09/12 15:02:44;;;;;;;4.43;4.03;;;;;;;21.53;56.15;101467.91;6247315;28;20244;-49
2021/09/12 15:06:05;;;;;;;1.98;1.38;;;;;;;21.67;54.95;101462.84;6248551;28;20243;-51
2021/09/12 15:09:26;;;;;;;1.95;1.35;;;;;;;21.41;54.90;101464.84;6240367;28;20610;-50
2021/09/12 15:12:48;;;;;;;2.88;1.48;;;;;;;20.85;56.18;101473.44;6247571;28;20327;-49
2021/09/12 15:16:10;;;;;;;1.67;1.50;;;;;;;20.81;57.11;101477.13;6245228;28;20224;-54
2021/09/12 15:19:31;;;;;;;2.20;1.20;;;;;;;20.57;58.71;101477.19;6248655;28;20509;-51
2021/09/12 15:22:52;;;;;;;2.28;1.60;;;;;;;20.97;58.21;101469.41;6245381;28;20314;-50
2021/09/12 15:26:13;;;;;;;1.80;1.30;;;;;;;21.40;57.36;101471.09;6258485;28;20621;-49
2021/09/12 15:29:34;;;;;;;2.42;2.22;;;;;;;21.11;58.23;101475.00;6257397;28;20228;-49